Flugplatz Hengsen-Opherdicke (UL)

Hier findest Du alle Informationen zum Flugplatz Hengsen-Opherdicke (UL).

Informationen für Piloten zum Flugplatz Hengsen-Opherdicke

Hier findest Du alle relevanten Informationen, die Du als Pilot benötigst, um Hengsen-Opherdicke anzufliegen.

Flugplatz: Hengsen-Opherdicke ICAO-Code: UL Flugplatz
Frequenz Turm: 123.350 Mhz GAFOR Gebiet: -
Frequenz Ground: 123.350 Mhz Mogas: nein
Platzrunde: S 1400 ft Landegebühr: 3,5 €
Platzhöhe: - Sunrise: 03:20 Uhr UTC
Pisten: 07/25 - 580 m x 30 m, GRAS Sunset: 19:48 Uhr UTC

Flugwetter am Flugplatz Hengsen-Opherdicke

Die METAR Information stammen aus EDLW (5.49 km entfernt).

METAR Code:
2020/06/23 06:50
EDLW 230650Z VRB02KT CAVOK 20/13 Q1026

Flugschulen am Flugplatz Hengsen-Opherdicke

Am Flugplatz Hengsen-Opherdicke gibt es leider keine Flugschule.

Benachbarte Flugplätze und Flugschulen

Es gibt 24 weitere Flugplätze in einem Umkreis von 50 km um den Flugplatz Hengsen-Opherdicke.

Jetzt anmelden

Passwort vergessen

Umfrage Archiv

Wären Rettungsgeräte keine Pflicht mehr, würdet Ihr Euer UL trotzdem mit einem ausstatten?

Ja
82.1 %
Nein
17.9 %
Stimmen: 195 | Diskussion
Anzeige: Roland Aircraft
Statistik Alle Mitglieder

Aktuell sind 30 Besucher online, davon 2 Mitglieder und 28 Gäste.


Mitglieder online:
flo_ffb  togo 

Anzeige: VFR Sprechfunk Simulator


Anzeige: Pocket FMS